Time;durP1;ratioP1;P1;durP2;ratioP2;P2;SDS_P1;SDS_P2;PMS_P1;PMS_P2;Temp;Humidity;BMP_temperature;BMP_pressure;BME280_temperature;BME280_humidity;BME280_pressure;Samples;Min_cycle;Max_cycle;Signal;HPM_P1;HPM_P2
2021/12/11 00:04:19;;;;;;;4.28;2.78;;;14.70;39.40;;;;;;5130357;27;20418;-64
2021/12/11 00:06:51;;;;;;;3.03;2.67;;;14.70;39.50;;;;;;5130255;27;20040;-63
2021/12/11 00:09:25;;;;;;;5.13;3.05;;;14.70;39.40;;;;;;5129044;28;20050;-63
2021/12/11 00:11:57;;;;;;;3.42;2.83;;;14.70;39.50;;;;;;5128905;28;20123;-63
2021/12/11 00:14:26;;;;;;;3.63;3.20;;;14.70;39.40;;;;;;5130144;27;20035;-64
2021/12/11 00:16:52;;;;;;;5.07;3.00;;;14.70;39.40;;;;;;5128766;28;20096;-63
2021/12/11 00:19:28;;;;;;;2.95;2.65;;;14.70;39.40;;;;;;5163237;27;20035;-64
2021/12/11 00:22:01;;;;;;;3.95;3.00;;;14.70;39.50;;;;;;5130003;27;20071;-64
2021/12/11 00:24:30;;;;;;;3.25;2.95;;;14.70;39.40;;;;;;5128743;28;20047;-63
2021/12/11 00:27:01;;;;;;;4.30;2.90;;;14.70;39.40;;;;;;5129751;27;20044;-64
2021/12/11 00:29:28;;;;;;;3.25;2.95;;;14.60;39.40;;;;;;5128629;28;20045;-63
2021/12/11 00:32:03;;;;;;;4.70;3.20;;;14.60;39.40;;;;;;5128758;28;20042;-64
2021/12/11 00:34:30;;;;;;;3.65;3.08;;;14.60;39.40;;;;;;5129987;27;20028;-64
2021/12/11 00:37:01;;;;;;;3.85;2.88;;;14.60;39.40;;;;;;5129755;27;20429;-64
2021/12/11 00:39:27;;;;;;;5.18;3.75;;;14.60;39.50;;;;;;5129684;27;20083;-64
2021/12/11 00:41:55;;;;;;;3.60;3.15;;;14.60;39.40;;;;;;5129447;27;20092;-64
2021/12/11 00:44:33;;;;;;;3.50;3.20;;;14.60;39.50;;;;;;5129599;27;20100;-64
2021/12/11 00:47:21;;;;;;;3.28;2.90;;;14.60;39.50;;;;;;5129464;27;20475;-64
2021/12/11 00:55:32;;;;;;;3.58;3.13;;;14.60;39.40;;;;;;5130311;27;20383;-64
2021/12/11 00:58:19;;;;;;;3.60;3.22;;;14.50;39.40;;;;;;5128893;28;20512;-64
2021/12/11 01:12:02;;;;;;;3.72;3.30;;;14.50;39.50;;;;;;5089541;28;20367;-63
2021/12/11 01:14:38;;;;;;;3.67;3.28;;;14.50;39.50;;;;;;5088179;28;20098;-64
2021/12/11 01:19:47;;;;;;;3.92;2.95;;;14.50;39.50;;;;;;5130329;27;20414;-63
2021/12/11 01:22:31;;;;;;;3.95;3.17;;;14.40;39.50;;;;;;5129251;28;20039;-64
2021/12/11 01:27:50;;;;;;;3.92;3.53;;;14.40;39.50;;;;;;5089407;27;20368;-64
2021/12/11 01:30:23;;;;;;;4.07;3.67;;;14.40;39.50;;;;;;5088377;28;20052;-64
2021/12/11 01:32:49;;;;;;;5.97;3.70;;;14.40;39.50;;;;;;5088210;28;20044;-64
2021/12/11 01:35:17;;;;;;;5.20;4.00;;;14.40;39.50;;;;;;5087998;28;20047;-64
2021/12/11 01:37:45;;;;;;;3.60;3.03;;;14.40;39.50;;;;;;5088062;28;20048;-64
2021/12/11 01:40:18;;;;;;;4.15;3.15;;;14.40;39.50;;;;;;5087815;28;20047;-64
2021/12/11 01:42:44;;;;;;;3.92;3.50;;;14.40;39.50;;;;;;5089139;28;20049;-62
2021/12/11 01:45:14;;;;;;;4.38;3.97;;;14.30;39.40;;;;;;5089285;28;20040;-64
2021/12/11 01:47:42;;;;;;;4.53;3.38;;;14.30;39.40;;;;;;5089284;28;20063;-64
2021/12/11 01:52:57;;;;;;;3.80;3.33;;;14.30;39.40;;;;;;5130419;27;20346;-64
2021/12/11 01:58:24;;;;;;;4.20;3.50;;;14.30;39.40;;;;;;5130286;27;20361;-64
2021/12/11 02:00:57;;;;;;;4.22;3.83;;;14.30;39.40;;;;;;5128991;27;20039;-63
2021/12/11 02:03:29;;;;;;;5.40;3.65;;;14.30;39.50;;;;;;5129348;28;20052;-64
2021/12/11 02:05:56;;;;;;;4.38;3.83;;;14.30;39.50;;;;;;5129215;28;20414;-64
2021/12/11 02:08:30;;;;;;;4.13;3.38;;;14.30;39.50;;;;;;5129219;28;20049;-63
2021/12/11 02:11:00;;;;;;;4.78;3.42;;;14.20;39.40;;;;;;5129082;28;20112;-64
2021/12/11 02:13:43;;;;;;;4.10;3.70;;;14.20;39.40;;;;;;5129114;28;20051;-64
2021/12/11 02:19:03;;;;;;;4.40;3.97;;;14.20;39.40;;;;;;5109750;27;20304;-64
2021/12/11 02:21:34;;;;;;;3.50;3.03;;;14.20;39.40;;;;;;5108715;28;20088;-63
2021/12/11 02:24:05;;;;;;;3.10;2.80;;;14.20;39.40;;;;;;5108509;28;20043;-64
2021/12/11 02:26:34;;;;;;;4.40;3.65;;;14.20;39.70;;;;;;5109699;28;20032;-62
2021/12/11 02:29:07;;;;;;;4.22;3.45;;;14.20;39.30;;;;;;5108618;28;20040;-64
2021/12/11 02:31:43;;;;;;;3.53;3.20;;;14.20;39.40;;;;;;5108284;28;20044;-64
2021/12/11 02:34:18;;;;;;;4.05;3.53;;;14.20;40.20;;;;;;5108247;28;20536;-63
2021/12/11 02:36:49;;;;;;;4.00;3.55;;;14.20;39.40;;;;;;5108148;28;20043;-64
2021/12/11 02:39:22;;;;;;;5.47;4.07;;;14.10;39.40;;;;;;5109392;28;20063;-64
2021/12/11 02:42:02;;;;;;;3.63;3.03;;;14.10;39.40;;;;;;5108333;28;20035;-64
2021/12/11 02:44:34;;;;;;;4.00;3.25;;;14.10;39.40;;;;;;5108204;28;20032;-64
2021/12/11 02:47:11;;;;;;;3.42;3.08;;;14.10;39.40;;;;;;5109350;28;20031;-64
2021/12/11 02:49:42;;;;;;;4.38;3.95;;;14.10;39.30;;;;;;5109233;28;20036;-63
2021/12/11 02:55:04;;;;;;;4.18;3.38;;;14.10;39.30;;;;;;5130341;27;20177;-63
2021/12/11 02:57:35;;;;;;;4.47;3.55;;;14.10;39.30;;;;;;5128942;28;20047;-63
2021/12/11 03:03:03;;;;;;;3.45;3.15;;;14.10;39.30;;;;;;5089334;27;21030;-64
2021/12/11 03:05:40;;;;;;;3.70;3.30;;;14.10;39.30;;;;;;5088433;28;20040;-64
2021/12/11 03:08:11;;;;;;;4.85;3.08;;;14.10;39.30;;;;;;5088346;28;20043;-63
2021/12/11 03:10:43;;;;;;;3.78;3.15;;;14.00;39.20;;;;;;5088123;28;20545;-64
2021/12/11 03:13:08;;;;;;;4.22;3.83;;;14.10;39.20;;;;;;5087928;28;20040;-63
2021/12/11 03:15:35;;;;;;;5.05;3.60;;;14.10;39.20;;;;;;5089319;28;20034;-64
2021/12/11 03:18:03;;;;;;;3.70;3.40;;;14.10;39.20;;;;;;5087890;28;20037;-63
2021/12/11 03:20:29;;;;;;;3.55;2.85;;;14.10;39.10;;;;;;5089121;28;20438;-63
2021/12/11 03:22:56;;;;;;;3.58;3.28;;;14.00;39.10;;;;;;5088085;28;20048;-64
2021/12/11 03:25:26;;;;;;;3.80;3.50;;;14.10;39.10;;;;;;5088048;28;20119;-64
2021/12/11 03:27:52;;;;;;;5.28;3.80;;;14.00;39.10;;;;;;5087694;28;20048;-63
2021/12/11 03:30:27;;;;;;;4.07;3.67;;;14.00;39.10;;;;;;5089372;28;20048;-63
2021/12/11 03:32:58;;;;;;;4.20;3.08;;;14.00;39.10;;;;;;5088947;28;20037;-64
2021/12/11 03:35:24;;;;;;;4.47;3.38;;;14.00;39.20;;;;;;5088929;28;20032;-64
2021/12/11 03:37:50;;;;;;;3.40;3.10;;;14.00;39.20;;;;;;5087575;28;20093;-64
2021/12/11 03:40:17;;;;;;;4.32;3.20;;;14.00;39.20;;;;;;5087463;28;20036;-64
2021/12/11 03:42:49;;;;;;;3.85;3.42;;;14.00;39.20;;;;;;5088582;28;20506;-64
2021/12/11 03:45:23;;;;;;;3.58;3.25;;;14.00;39.20;;;;;;5087439;28;20111;-63
2021/12/11 03:47:54;;;;;;;3.45;2.95;;;14.00;39.20;;;;;;5088762;28;20402;-64
2021/12/11 03:50:21;;;;;;;;;;;14.00;39.20;;;;;;5087744;28;20479;-64
2021/12/11 03:52:49;;;;;;;3.47;3.15;;;14.00;39.20;;;;;;5087241;28;19923;-64
2021/12/11 03:55:20;;;;;;;4.55;3.20;;;13.90;39.20;;;;;;5087412;28;20071;-64
2021/12/11 03:57:46;;;;;;;3.33;3.00;;;13.90;39.20;;;;;;5087228;28;20055;-64
2021/12/11 04:00:18;;;;;;;3.60;3.30;;;13.90;39.20;;;;;;5088347;28;20036;-64
2021/12/11 04:02:45;;;;;;;4.32;3.15;;;13.90;39.20;;;;;;5086793;28;20059;-64
2021/12/11 04:05:11;;;;;;;3.78;2.78;;;13.90;39.20;;;;;;5088191;28;20548;-64
2021/12/11 04:07:50;;;;;;;3.63;3.10;;;13.90;39.20;;;;;;5086904;28;20094;-64
2021/12/11 04:10:19;;;;;;;3.70;2.90;;;13.90;39.20;;;;;;5086916;28;20036;-64
2021/12/11 04:12:48;;;;;;;3.97;3.58;;;13.90;39.30;;;;;;5082159;28;20052;-63
2021/12/11 04:15:16;;;;;;;3.22;2.90;;;13.80;39.30;;;;;;5074652;28;20094;-64
2021/12/11 04:17:42;;;;;;;3.38;3.08;;;13.80;39.30;;;;;;5074640;28;20041;-64
2021/12/11 04:20:14;;;;;;;5.20;3.20;;;13.80;39.30;;;;;;5073495;28;20037;-64
2021/12/11 04:22:41;;;;;;;4.20;3.40;;;13.80;39.30;;;;;;5074640;28;20033;-64
2021/12/11 04:25:11;;;;;;;3.75;3.42;;;13.80;39.30;;;;;;5074464;28;20032;-64
2021/12/11 04:27:37;;;;;;;3.50;3.08;;;13.80;39.30;;;;;;5073185;28;20068;-64
2021/12/11 04:30:07;;;;;;;3.58;3.28;;;13.80;39.30;;;;;;5074248;28;20076;-64
2021/12/11 04:32:34;;;;;;;3.28;2.97;;;13.80;39.20;;;;;;5073152;28;20044;-63
2021/12/11 04:35:03;;;;;;;3.08;2.75;;;13.80;39.30;;;;;;5072881;28;20048;-64
2021/12/11 04:37:30;;;;;;;3.60;3.30;;;13.80;39.20;;;;;;5074505;28;20055;-63
2021/12/11 04:40:03;;;;;;;4.07;3.70;;;13.80;39.20;;;;;;5074198;28;20037;-63
2021/12/11 04:45:17;;;;;;;3.53;3.22;;;13.80;39.20;;;;;;5150926;27;20114;-63
2021/12/11 04:47:50;;;;;;;3.40;3.10;;;13.70;39.10;;;;;;5111946;28;20055;-64
2021/12/11 04:50:28;;;;;;;3.42;3.15;;;13.70;39.20;;;;;;5111707;28;20047;-63
2021/12/11 04:52:56;;;;;;;2.97;2.67;;;13.70;39.10;;;;;;5112092;28;20048;-63
2021/12/11 05:12:19;;;;;;;3.35;2.65;;;13.70;39.00;;;;;;5130293;27;20350;-64
2021/12/11 05:14:49;;;;;;;3.47;3.08;;;13.70;39.00;;;;;;5129008;28;20057;-64
2021/12/11 05:17:15;;;;;;;3.33;3.03;;;13.70;39.00;;;;;;5128908;28;20039;-63
2021/12/11 05:19:44;;;;;;;3.42;2.92;;;13.70;39.00;;;;;;5129231;28;20039;-64
2021/12/11 05:22:30;;;;;;;4.07;3.13;;;13.70;39.00;;;;;;5129097;28;20044;-64
2021/12/11 05:25:03;;;;;;;3.47;3.10;;;13.70;39.00;;;;;;5131810;27;20048;-64
2021/12/11 05:27:35;;;;;;;3.38;3.03;;;13.60;39.00;;;;;;5128881;27;20051;-63
2021/12/11 05:30:04;;;;;;;3.47;3.05;;;13.60;39.30;;;;;;5128573;28;20575;-64
2021/12/11 05:32:30;;;;;;;3.10;2.58;;;13.70;39.00;;;;;;5129849;27;20368;-64
2021/12/11 05:34:58;;;;;;;3.30;3.03;;;13.60;39.00;;;;;;5128718;28;20046;-64
2021/12/11 05:37:29;;;;;;;3.22;2.85;;;13.60;39.00;;;;;;5129822;27;20040;-64
2021/12/11 05:39:55;;;;;;;3.30;3.00;;;13.60;39.10;;;;;;5128721;28;20043;-64
2021/12/11 05:42:21;;;;;;;3.42;3.10;;;13.60;39.00;;;;;;5128708;28;20062;-64
2021/12/11 05:44:46;;;;;;;3.72;3.00;;;13.60;39.00;;;;;;5128511;28;20122;-64
2021/12/11 05:47:12;;;;;;;3.08;2.78;;;13.60;39.00;;;;;;5129749;28;20024;-64
2021/12/11 05:49:41;;;;;;;3.67;2.78;;;13.70;39.10;;;;;;5129563;28;20031;-64
2021/12/11 05:52:09;;;;;;;3.72;2.67;;;13.60;39.00;;;;;;5129577;27;20059;-64
2021/12/11 05:54:37;;;;;;;3.30;2.97;;;13.60;39.00;;;;;;5128482;28;20041;-64
2021/12/11 05:57:07;;;;;;;3.10;2.67;;;13.60;39.00;;;;;;5128509;28;20093;-64
2021/12/11 05:59:37;;;;;;;3.20;2.33;;;13.60;38.90;;;;;;5129666;27;20100;-63
2021/12/11 06:04:45;;;;;;;3.00;2.70;;;13.60;38.90;;;;;;5130447;27;20382;-64
2021/12/11 06:07:13;;;;;;;3.15;2.85;;;13.60;38.90;;;;;;5128922;27;20051;-64
2021/12/11 06:09:42;;;;;;;3.33;3.00;;;13.60;38.90;;;;;;5130232;27;20043;-64
2021/12/11 06:12:12;;;;;;;3.42;2.63;;;13.50;38.90;;;;;;5128974;28;20035;-63
2021/12/11 06:14:40;;;;;;;4.28;2.95;;;13.50;38.90;;;;;;5128858;28;20123;-64
2021/12/11 06:17:10;;;;;;;3.25;2.60;;;13.50;38.90;;;;;;5130211;27;20490;-64
2021/12/11 06:19:36;;;;;;;3.63;3.28;;;13.50;38.90;;;;;;5128771;28;20043;-64
2021/12/11 06:22:05;;;;;;;3.80;3.00;;;13.50;38.90;;;;;;5130027;27;20106;-63
2021/12/11 06:24:31;;;;;;;3.38;3.05;;;13.50;39.00;;;;;;5128631;28;20058;-64
2021/12/11 06:26:58;;;;;;;3.60;3.00;;;13.50;38.90;;;;;;5128606;28;20039;-64
2021/12/11 06:29:24;;;;;;;3.03;2.50;;;13.50;38.90;;;;;;5128548;28;20031;-64
2021/12/11 06:31:51;;;;;;;3.15;2.85;;;13.50;38.90;;;;;;5128572;28;20036;-64
2021/12/11 06:34:16;;;;;;;3.13;2.83;;;13.50;38.90;;;;;;5128470;28;20066;-63
2021/12/11 06:36:44;;;;;;;4.97;3.03;;;13.50;38.90;;;;;;5129732;27;20063;-63
2021/12/11 06:39:16;;;;;;;3.65;3.35;;;13.50;38.90;;;;;;5128285;27;20035;-64
2021/12/11 06:41:44;;;;;;;4.00;2.83;;;13.50;38.90;;;;;;5128441;28;20043;-63
2021/12/11 06:44:11;;;;;;;3.40;3.10;;;13.50;38.80;;;;;;5129556;27;20042;-64
2021/12/11 06:46:39;;;;;;;3.03;2.78;;;13.50;39.60;;;;;;5129645;27;20039;-63
2021/12/11 06:49:09;;;;;;;3.53;3.03;;;13.50;38.90;;;;;;5128088;28;20035;-63
2021/12/11 06:51:35;;;;;;;3.55;2.92;;;13.50;38.90;;;;;;5128419;28;20043;-64
2021/12/11 06:54:05;;;;;;;3.58;2.63;;;13.50;38.80;;;;;;5129494;27;20043;-64
2021/12/11 06:56:32;;;;;;;3.17;2.60;;;13.50;38.80;;;;;;5128143;28;20123;-64
2021/12/11 06:59:01;;;;;;;2.65;2.45;;;13.50;38.80;;;;;;5129328;27;20043;-63
2021/12/11 07:01:28;;;;;;;3.15;2.80;;;13.50;38.90;;;;;;5127902;28;20047;-64
2021/12/11 07:03:57;;;;;;;3.33;2.75;;;13.50;38.90;;;;;;5127431;28;20043;-65
2021/12/11 07:06:28;;;;;;;3.83;3.42;;;13.50;38.80;;;;;;5129110;27;20391;-63
2021/12/11 07:08:54;;;;;;;3.65;3.08;;;13.50;38.80;;;;;;5129163;27;20510;-64
2021/12/11 07:11:22;;;;;;;3.42;3.05;;;13.50;38.80;;;;;;5129054;27;20079;-64
2021/12/11 07:13:48;;;;;;;3.85;2.95;;;13.50;38.80;;;;;;5128571;27;20043;-64
2021/12/11 07:16:17;;;;;;;3.20;2.72;;;13.40;38.70;;;;;;5114788;28;20054;-64
2021/12/11 07:18:44;;;;;;;3.92;3.50;;;13.40;38.80;;;;;;5114208;28;20055;-64
2021/12/11 07:21:09;;;;;;;3.35;3.05;;;13.40;38.80;;;;;;5115391;28;20035;-64
2021/12/11 07:23:37;;;;;;;4.25;3.60;;;13.40;38.80;;;;;;5113850;28;20084;-62
2021/12/11 07:28:50;;;;;;;3.65;3.15;;;13.40;38.80;;;;;;5130357;27;20406;-64
2021/12/11 07:31:16;;;;;;;3.17;2.88;;;13.40;38.80;;;;;;5129150;28;20050;-64
2021/12/11 07:33:43;;;;;;;2.90;2.60;;;13.40;38.80;;;;;;5129014;28;20526;-64
2021/12/11 07:36:09;;;;;;;3.22;2.90;;;13.40;38.80;;;;;;5130412;27;20408;-64
2021/12/11 07:38:35;;;;;;;3.65;3.33;;;13.40;38.80;;;;;;5129190;28;20127;-64
2021/12/11 07:41:05;;;;;;;3.28;2.78;;;13.30;38.70;;;;;;5130080;27;20368;-63
2021/12/11 07:43:31;;;;;;;3.33;2.47;;;13.30;38.80;;;;;;5130110;27;20079;-63
2021/12/11 07:45:57;;;;;;;3.88;3.25;;;13.30;38.70;;;;;;5129923;27;20081;-64
2021/12/11 07:48:23;;;;;;;3.90;2.85;;;13.30;38.80;;;;;;5128674;28;20043;-64
2021/12/11 07:50:49;;;;;;;3.28;2.80;;;13.30;38.70;;;;;;5129953;28;20088;-63
2021/12/11 07:53:17;;;;;;;3.92;2.97;;;13.30;38.70;;;;;;5128861;28;20118;-64
2021/12/11 07:55:43;;;;;;;4.80;3.10;;;13.30;38.70;;;;;;5128542;28;20050;-64
2021/12/11 07:58:09;;;;;;;3.92;2.78;;;13.30;38.70;;;;;;5128426;28;20044;-64
2021/12/11 08:00:40;;;;;;;3.25;2.92;;;13.30;38.70;;;;;;5128682;28;20039;-64
2021/12/11 08:03:08;;;;;;;3.78;2.78;;;13.30;38.70;;;;;;5129653;27;20039;-64
2021/12/11 08:05:35;;;;;;;4.28;2.97;;;13.30;38.70;;;;;;5129731;27;20075;-63
2021/12/11 08:08:03;;;;;;;4.15;3.35;;;13.30;38.70;;;;;;5128262;28;20047;-64
2021/12/11 08:10:30;;;;;;;3.60;3.20;;;13.30;38.70;;;;;;5129630;27;20071;-64
2021/12/11 08:12:58;;;;;;;3.90;3.10;;;13.30;38.70;;;;;;5129500;27;20114;-64
2021/12/11 08:15:25;;;;;;;4.03;2.88;;;13.30;38.70;;;;;;5128421;28;20039;-64
2021/12/11 08:17:54;;;;;;;4.50;2.92;;;13.20;38.60;;;;;;5128323;28;20051;-63
2021/12/11 08:20:23;;;;;;;5.45;3.22;;;13.30;38.70;;;;;;5128078;28;20075;-64
2021/12/11 08:22:50;;;;;;;3.22;2.58;;;13.30;38.70;;;;;;5128283;28;20039;-64
2021/12/11 08:25:16;;;;;;;4.05;3.30;;;13.30;38.60;;;;;;5128040;28;20054;-64
2021/12/11 08:27:42;;;;;;;5.10;3.35;;;13.30;38.70;;;;;;5127480;27;20047;-64
2021/12/11 08:30:09;;;;;;;3.15;2.63;;;13.30;38.70;;;;;;5129040;27;20118;-63
2021/12/11 08:32:35;;;;;;;3.22;2.78;;;13.30;38.70;;;;;;5129142;27;20043;-63
2021/12/11 08:35:04;;;;;;;3.47;3.17;;;13.30;38.70;;;;;;5129320;27;20032;-63
2021/12/11 08:37:31;;;;;;;4.20;3.55;;;13.30;38.60;;;;;;5129133;27;20043;-63
2021/12/11 08:40:00;;;;;;;4.00;3.28;;;13.30;38.60;;;;;;5113862;28;20097;-63
2021/12/11 08:42:27;;;;;;;5.53;3.10;;;13.30;38.60;;;;;;5113100;28;20125;-65
2021/12/11 08:45:03;;;;;;;3.17;2.85;;;13.30;38.60;;;;;;5113846;28;20049;-66
2021/12/11 08:47:29;;;;;;;3.28;2.67;;;13.30;39.20;;;;;;5114732;28;20039;-65
2021/12/11 08:49:58;;;;;;;2.83;2.63;;;13.50;39.40;;;;;;5114250;28;20483;-64
2021/12/11 08:52:31;;;;;;;3.55;1.98;;;14.30;39.00;;;;;;5113443;28;20047;-66
2021/12/11 08:54:58;;;;;;;3.13;2.00;;;15.80;37.20;;;;;;5113287;28;20044;-66
2021/12/11 08:57:28;;;;;;;3.08;2.25;;;17.40;34.70;;;;;;5113693;28;20110;-66
2021/12/11 08:59:58;;;;;;;4.20;2.17;;;18.70;32.70;;;;;;5113852;28;20479;-66
2021/12/11 09:02:28;;;;;;;5.43;2.00;;;19.60;31.30;;;;;;5113590;28;20043;-66
2021/12/11 09:07:42;;;;;;;3.45;2.08;;;20.50;30.20;;;;;;5129116;27;20399;-65
2021/12/11 09:15:33;;;;;;;3.40;1.60;;;21.60;29.10;;;;;;5035485;27;4064413;-66
2021/12/11 09:18:05;;;;;;;4.15;2.08;;;22.30;28.50;;;;;;5132457;27;20277;-66
2021/12/11 09:20:40;;;;;;;3.92;2.40;;;22.60;28.20;;;;;;5131555;27;20043;-64
2021/12/11 09:28:46;;;;;;;2.22;2.03;;;23.00;28.00;;;;;;5130363;27;20350;-64
2021/12/11 09:31:26;;;;;;;3.28;2.30;;;23.80;27.20;;;;;;5128937;28;20046;-65
2021/12/11 09:33:58;;;;;;;4.18;2.08;;;24.00;27.10;;;;;;5129018;28;20050;-65
2021/12/11 09:36:30;;;;;;;3.15;1.52;;;24.10;26.90;;;;;;5129112;28;20043;-64
2021/12/11 09:39:06;;;;;;;3.38;2.35;;;24.30;26.80;;;;;;5128876;28;20085;-64
2021/12/11 09:41:35;;;;;;;3.88;1.63;;;24.30;26.80;;;;;;5127975;28;20039;-64
2021/12/11 09:46:46;;;;;;;2.25;2.05;;;24.40;26.70;;;;;;5129966;27;20358;-66
2021/12/11 09:49:14;;;;;;;3.65;1.80;;;24.40;26.80;;;;;;5122710;28;20040;-63
2021/12/11 09:51:45;;;;;;;2.47;2.00;;;24.50;26.80;;;;;;5108376;28;20058;-62
2021/12/11 09:54:17;;;;;;;3.40;1.80;;;24.50;26.90;;;;;;5108380;28;20092;-65
2021/12/11 09:56:51;;;;;;;3.17;1.40;;;24.50;26.90;;;;;;5109624;28;20043;-63
2021/12/11 09:59:20;;;;;;;3.03;2.30;;;24.50;27.00;;;;;;5108307;28;20047;-63
2021/12/11 10:01:50;;;;;;;2.75;1.45;;;24.60;27.10;;;;;;5108962;28;20433;-64
2021/12/11 10:04:22;;;;;;;2.53;1.67;;;24.60;27.00;;;;;;5109563;28;20035;-64
2021/12/11 10:09:53;;;;;;;2.40;2.20;;;24.90;26.80;;;;;;5130345;27;20845;-65
2021/12/11 10:12:24;;;;;;;3.92;1.48;;;24.80;26.80;;;;;;5129806;28;20032;-64
2021/12/11 10:17:39;;;;;;;1.95;1.48;;;24.80;26.90;;;;;;5132974;27;20373;-64
2021/12/11 10:20:15;;;;;;;2.78;1.90;;;25.20;26.80;;;;;;5129718;27;20092;-63
2021/12/11 10:22:43;;;;;;;2.35;1.52;;;25.50;26.60;;;;;;5133083;27;20518;-63
2021/12/11 10:25:16;;;;;;;3.72;1.30;;;25.90;26.20;;;;;;5135591;27;20143;-63
2021/12/11 10:27:42;;;;;;;2.50;1.60;;;26.10;26.00;;;;;;5136030;27;20061;-63
2021/12/11 10:30:11;;;;;;;2.05;1.17;;;26.20;25.80;;;;;;5148477;27;20073;-63
2021/12/11 10:32:40;;;;;;;3.85;1.50;;;26.20;25.70;;;;;;5149523;27;20121;-63
2021/12/11 10:35:12;;;;;;;1.90;1.40;;;26.10;25.70;;;;;;5149344;27;20416;-63
2021/12/11 10:37:40;;;;;;;2.42;1.48;;;26.00;25.80;;;;;;5150622;27;20042;-63
2021/12/11 10:40:13;;;;;;;1.85;1.13;;;25.70;25.90;;;;;;5150586;27;20042;-63
2021/12/11 10:42:39;;;;;;;2.85;1.70;;;25.40;26.00;;;;;;5149510;27;20484;-63
2021/12/11 10:45:08;;;;;;;2.40;1.10;;;25.10;26.20;;;;;;5150543;27;20478;-63
2021/12/11 10:47:40;;;;;;;2.33;1.40;;;24.80;26.40;;;;;;5149115;27;20031;-63
2021/12/11 10:50:11;;;;;;;2.40;1.38;;;24.50;26.60;;;;;;5135245;27;20387;-64
2021/12/11 10:52:38;;;;;;;2.28;1.40;;;24.20;26.90;;;;;;5128283;28;20038;-64
2021/12/11 10:55:11;;;;;;;2.83;1.75;;;23.90;27.20;;;;;;5128171;28;20039;-63
2021/12/11 10:57:37;;;;;;;2.30;1.23;;;23.60;27.50;;;;;;5129532;27;20035;-63
2021/12/11 11:00:11;;;;;;;3.15;1.50;;;23.30;27.60;;;;;;5128246;28;20042;-64
2021/12/11 11:02:37;;;;;;;1.80;1.50;;;23.10;27.80;;;;;;5128132;28;20521;-63
2021/12/11 11:05:15;;;;;;;1.88;1.55;;;22.90;28.00;;;;;;5128472;28;20044;-63
2021/12/11 11:07:42;;;;;;;1.90;1.42;;;22.70;28.20;;;;;;5127993;28;20043;-64
2021/12/11 11:10:13;;;;;;;1.75;1.38;;;22.60;28.30;;;;;;5129410;27;20065;-63
2021/12/11 11:12:39;;;;;;;2.13;1.33;;;22.40;28.40;;;;;;5129287;27;20385;-63
2021/12/11 11:15:06;;;;;;;3.28;1.13;;;22.30;28.60;;;;;;5129108;27;20043;-63
2021/12/11 11:17:33;;;;;;;2.55;1.48;;;22.10;28.70;;;;;;5128125;28;20136;-63
2021/12/11 11:20:09;;;;;;;2.05;1.70;;;22.00;28.80;;;;;;5127864;28;20076;-63
2021/12/11 11:22:39;;;;;;;1.95;1.67;;;21.80;29.00;;;;;;5127713;28;20075;-64
2021/12/11 11:25:11;;;;;;;3.78;1.65;;;21.60;29.20;;;;;;5128070;28;20039;-64
2021/12/11 11:27:38;;;;;;;2.75;1.50;;;21.40;29.40;;;;;;5122128;27;20047;-64
2021/12/11 11:30:08;;;;;;;2.85;1.92;;;21.20;29.60;;;;;;5115278;28;20077;-64
2021/12/11 11:32:34;;;;;;;2.08;1.58;;;21.00;29.80;;;;;;5114002;28;20086;-64
2021/12/11 11:35:06;;;;;;;3.42;1.48;;;20.80;30.00;;;;;;5115001;28;20071;-64
2021/12/11 11:37:35;;;;;;;2.40;1.77;;;20.60;30.20;;;;;;5115393;28;20086;-63
2021/12/11 11:40:07;;;;;;;2.25;1.92;;;20.40;30.50;;;;;;5115127;28;20104;-64
2021/12/11 11:42:39;;;;;;;3.08;1.98;;;20.20;30.80;;;;;;5113830;28;20474;-63
2021/12/11 11:45:07;;;;;;;3.17;1.80;;;20.00;31.10;;;;;;5114902;28;20037;-63
2021/12/11 11:47:34;;;;;;;2.03;1.73;;;19.80;31.30;;;;;;5113899;28;20031;-64
2021/12/11 11:50:02;;;;;;;1.90;1.48;;;19.60;31.60;;;;;;5114814;28;20031;-63
2021/12/11 11:52:33;;;;;;;3.15;1.88;;;19.50;31.90;;;;;;5115035;28;20587;-64
2021/12/11 11:55:07;;;;;;;2.72;1.60;;;19.20;32.10;;;;;;5096764;28;20048;-63
2021/12/11 11:57:36;;;;;;;2.05;1.80;;;19.10;32.50;;;;;;5113748;28;20122;-62
2021/12/11 12:00:09;;;;;;;3.13;2.20;;;18.90;32.80;;;;;;5114597;27;20494;-63
2021/12/11 12:02:35;;;;;;;3.60;2.65;;;18.70;33.10;;;;;;5113430;28;20078;-63
2021/12/11 12:05:03;;;;;;;2.35;1.90;;;18.50;33.40;;;;;;5113538;28;20102;-63
2021/12/11 12:07:30;;;;;;;2.20;2.00;;;18.40;33.70;;;;;;5114747;28;20036;-63
2021/12/11 12:10:16;;;;;;;2.75;2.40;;;18.20;34.00;;;;;;5113272;28;20471;-63
2021/12/11 12:12:43;;;;;;;3.63;2.42;;;18.00;34.20;;;;;;5114432;28;20440;-62
2021/12/11 12:15:17;;;;;;;3.83;2.05;;;17.90;34.50;;;;;;5113947;28;20518;-63
2021/12/11 12:17:43;;;;;;;3.38;2.65;;;17.70;34.80;;;;;;5113145;28;20039;-63
2021/12/11 12:20:12;;;;;;;2.72;2.22;;;17.50;35.00;;;;;;5112884;28;20042;-62
2021/12/11 12:22:46;;;;;;;3.70;2.55;;;17.40;35.30;;;;;;5114426;28;20043;-62
2021/12/11 12:25:12;;;;;;;2.90;2.53;;;17.30;35.50;;;;;;5113969;28;20043;-63
2021/12/11 12:27:42;;;;;;;3.83;2.55;;;17.20;35.60;;;;;;5112890;28;20035;-63
2021/12/11 12:30:15;;;;;;;3.80;2.17;;;17.10;35.90;;;;;;5114063;28;20071;-63
2021/12/11 12:32:45;;;;;;;3.63;2.63;;;17.00;36.10;;;;;;5114099;28;20704;-63
2021/12/11 12:35:14;;;;;;;3.07;2.10;;;16.90;36.20;;;;;;5112675;28;20173;-63
2021/12/11 12:37:44;;;;;;;2.53;2.28;;;16.80;36.40;;;;;;5112813;28;20274;-63
2021/12/11 12:40:22;;;;;;;3.58;2.50;;;16.70;36.50;;;;;;5111867;28;20119;-63
2021/12/11 12:42:54;;;;;;;2.25;2.05;;;16.60;36.70;;;;;;5112783;28;20039;-63
2021/12/11 12:45:35;;;;;;;3.08;2.78;;;16.50;36.80;;;;;;5113810;28;20035;-63
2021/12/11 12:48:05;;;;;;;3.45;2.53;;;16.50;37.00;;;;;;5113867;28;20041;-63
2021/12/11 12:50:35;;;;;;;;;;;16.40;37.10;;;;;;5114055;27;20135;-63
2021/12/11 12:53:01;;;;;;;4.60;2.72;;;16.40;36.90;;;;;;5113654;28;19919;-63
2021/12/11 12:55:37;;;;;;;2.78;2.53;;;16.30;37.20;;;;;;5112780;28;20054;-63
2021/12/11 12:58:09;;;;;;;3.67;2.95;;;16.30;37.40;;;;;;5112230;28;20040;-63
2021/12/11 13:03:23;;;;;;;4.15;3.13;;;16.30;37.40;;;;;;5130298;27;20391;-63
2021/12/11 13:05:54;;;;;;;5.05;3.22;;;16.20;37.60;;;;;;5129097;28;20040;-63
2021/12/11 13:08:22;;;;;;;;;;;16.20;37.70;;;;;;5129406;28;20050;-63
2021/12/11 13:10:54;;;;;;;3.50;3.20;;;16.20;37.50;;;;;;5129222;28;20420;-63
2021/12/11 13:13:22;;;;;;;3.00;2.70;;;16.10;37.80;;;;;;5129148;28;20047;-62
2021/12/11 13:15:54;;;;;;;4.03;2.97;;;16.10;37.80;;;;;;5128772;28;20466;-63
2021/12/11 13:18:23;;;;;;;4.13;3.53;;;16.10;38.00;;;;;;5128739;28;20550;-63
2021/12/11 13:20:55;;;;;;;3.53;3.22;;;16.10;38.00;;;;;;5128948;28;20122;-63
2021/12/11 13:23:21;;;;;;;4.72;2.83;;;16.00;38.10;;;;;;5129992;27;20409;-63
2021/12/11 13:25:53;;;;;;;4.80;3.22;;;16.00;38.20;;;;;;5128923;28;20066;-63
2021/12/11 13:28:24;;;;;;;4.07;2.65;;;16.00;38.30;;;;;;5128752;28;20072;-63
2021/12/11 13:30:54;;;;;;;4.13;3.20;;;15.90;38.30;;;;;;5129803;27;20054;-63
2021/12/11 13:33:24;;;;;;;3.25;2.90;;;15.90;38.40;;;;;;5128772;28;20051;-63
2021/12/11 13:35:51;;;;;;;3.65;2.88;;;15.90;38.50;;;;;;5128759;28;20500;-63
2021/12/11 13:38:18;;;;;;;4.90;3.20;;;15.80;38.50;;;;;;5129733;27;20035;-62
2021/12/11 13:40:48;;;;;;;4.97;3.60;;;15.80;39.40;;;;;;5128510;28;20039;-63
2021/12/11 13:43:15;;;;;;;4.10;3.30;;;15.80;38.70;;;;;;5128513;28;20039;-63
2021/12/11 13:45:48;;;;;;;5.15;3.22;;;15.70;38.80;;;;;;5129614;27;20433;-63
2021/12/11 13:48:15;;;;;;;3.85;3.35;;;15.60;38.80;;;;;;5129406;27;20089;-62
2021/12/11 13:50:48;;;;;;;4.63;3.85;;;15.60;39.00;;;;;;5162568;27;20071;-63
2021/12/11 13:53:20;;;;;;;4.80;3.85;;;15.60;39.10;;;;;;5128329;28;20051;-63
2021/12/11 13:55:50;;;;;;;5.38;3.17;;;15.50;39.20;;;;;;5129268;27;20130;-63
2021/12/11 13:58:16;;;;;;;4.88;4.07;;;15.50;39.30;;;;;;5129471;27;20043;-63
2021/12/11 14:00:50;;;;;;;5.85;3.92;;;15.40;39.30;;;;;;5129428;27;20482;-63
2021/12/11 14:03:19;;;;;;;4.45;3.65;;;15.40;39.40;;;;;;5127994;28;20082;-63
2021/12/11 14:05:49;;;;;;;4.40;3.67;;;15.30;39.50;;;;;;5129197;27;20039;-63
2021/12/11 14:08:16;;;;;;;4.70;2.83;;;15.30;39.60;;;;;;5128968;27;20039;-63
2021/12/11 14:10:44;;;;;;;4.10;2.70;;;15.20;39.60;;;;;;5128060;28;20035;-63
2021/12/11 14:13:11;;;;;;;3.28;3.00;;;15.20;39.70;;;;;;5121802;28;20054;-63
2021/12/11 14:15:39;;;;;;;3.15;2.60;;;15.20;39.80;;;;;;5114015;28;20048;-63
2021/12/11 14:18:06;;;;;;;5.13;3.22;;;15.10;39.80;;;;;;5114019;28;20040;-63
2021/12/11 14:20:33;;;;;;;4.15;2.95;;;15.10;39.90;;;;;;5114100;28;20043;-63
2021/12/11 14:23:02;;;;;;;4.47;2.80;;;15.10;40.00;;;;;;5115082;28;20047;-63
2021/12/11 14:25:32;;;;;;;3.90;3.20;;;15.10;40.10;;;;;;5113758;28;20479;-64
2021/12/11 14:28:01;;;;;;;2.88;2.58;;;15.00;40.10;;;;;;5115120;28;20042;-64
2021/12/11 14:30:27;;;;;;;3.88;3.17;;;15.00;40.20;;;;;;5113706;28;20368;-63